createdAt,value
2018-12-06T00:00:13.694Z,6.40
2018-12-06T00:01:13.680Z,6.50
2018-12-06T00:02:13.667Z,7.40
2018-12-06T00:03:13.702Z,6.60
2018-12-06T00:04:13.648Z,7.30
2018-12-06T00:05:13.641Z,5.60
2018-12-06T00:06:13.630Z,7.30
2018-12-06T00:07:13.635Z,6.40
2018-12-06T00:08:13.622Z,6.90
2018-12-06T00:09:13.592Z,7.40
2018-12-06T00:10:13.620Z,6.50
2018-12-06T00:11:13.580Z,5.90
2018-12-06T00:12:13.601Z,5.20
2018-12-06T00:13:13.568Z,6.10
2018-12-06T00:14:13.535Z,5.00
2018-12-06T00:15:13.537Z,5.50
2018-12-06T00:16:13.540Z,6.20
2018-12-06T00:17:13.504Z,6.60
2018-12-06T00:18:13.523Z,5.60
2018-12-06T00:19:13.490Z,6.30
2018-12-06T00:20:13.492Z,6.00
2018-12-06T00:21:13.467Z,6.60
2018-12-06T00:22:13.481Z,5.90
2018-12-06T00:23:13.464Z,7.10
2018-12-06T00:24:13.468Z,7.20
2018-12-06T00:25:13.445Z,5.50
2018-12-06T00:26:13.423Z,8.00
2018-12-06T00:27:13.403Z,6.20
2018-12-06T00:28:13.406Z,7.00
2018-12-06T00:29:13.390Z,5.70
2018-12-06T00:30:13.373Z,4.90
2018-12-06T00:31:13.390Z,7.30
2018-12-06T00:32:13.340Z,6.10
2018-12-06T00:33:13.340Z,7.20
2018-12-06T00:34:13.343Z,6.10
2018-12-06T00:35:13.307Z,6.00
2018-12-06T00:36:13.306Z,6.10
2018-12-06T00:37:13.285Z,7.80
2018-12-06T00:38:13.292Z,5.70
2018-12-06T00:39:13.320Z,7.10
2018-12-06T00:40:13.258Z,5.70
2018-12-06T00:41:13.246Z,4.10
2018-12-06T00:42:13.259Z,6.80
2018-12-06T00:43:13.225Z,5.00
2018-12-06T00:44:13.224Z,5.80
2018-12-06T00:45:13.200Z,5.10
2018-12-06T00:46:13.192Z,5.40
2018-12-06T00:47:13.182Z,6.40
2018-12-06T00:48:13.189Z,4.90
2018-12-06T00:49:13.181Z,5.50
2018-12-06T00:50:13.143Z,5.50
2018-12-06T00:51:13.138Z,5.70
2018-12-06T00:52:13.130Z,5.70
2018-12-06T00:53:13.109Z,4.60
2018-12-06T00:54:13.130Z,6.10
2018-12-06T00:55:13.089Z,5.60
2018-12-06T00:56:13.092Z,5.40
2018-12-06T00:57:13.091Z,6.80
2018-12-06T00:58:13.058Z,4.70
2018-12-06T00:59:13.046Z,6.50
2018-12-06T01:00:13.064Z,6.40
2018-12-06T01:01:13.024Z,6.30
2018-12-06T01:02:13.016Z,5.70
2018-12-06T01:03:13.005Z,5.50
2018-12-06T01:04:12.989Z,5.60
2018-12-06T01:05:13.009Z,5.40
2018-12-06T01:06:12.971Z,5.70
2018-12-06T01:07:12.958Z,5.50
2018-12-06T01:08:12.972Z,6.50
2018-12-06T01:09:12.966Z,6.30
2018-12-06T01:10:12.950Z,6.40
2018-12-06T01:11:12.923Z,6.20
2018-12-06T01:12:12.911Z,6.60
2018-12-06T01:13:12.894Z,7.10
2018-12-06T01:14:12.881Z,8.00
2018-12-06T01:15:12.890Z,5.90
2018-12-06T01:16:12.883Z,5.40
2018-12-06T01:17:12.852Z,6.10
2018-12-06T01:18:12.862Z,8.90
2018-12-06T01:19:12.835Z,5.90
2018-12-06T01:20:12.824Z,7.10
2018-12-06T01:21:12.827Z,6.60
2018-12-06T01:22:12.797Z,5.90
2018-12-06T01:23:12.802Z,7.00
2018-12-06T01:24:12.776Z,6.80
2018-12-06T01:25:12.763Z,7.10
2018-12-06T01:26:12.805Z,7.00
2018-12-06T01:27:12.743Z,8.20
2018-12-06T01:28:12.757Z,7.30
2018-12-06T01:29:12.746Z,6.80
2018-12-06T01:30:12.709Z,7.90
2018-12-06T01:31:12.700Z,6.40
2018-12-06T01:32:12.726Z,6.90
2018-12-06T01:33:12.678Z,6.30
2018-12-06T01:34:12.684Z,7.20
2018-12-06T01:35:12.690Z,7.00
2018-12-06T01:36:12.642Z,8.00
2018-12-06T01:37:12.666Z,8.60
2018-12-06T01:38:12.641Z,6.40
2018-12-06T01:39:12.616Z,6.30
2018-12-06T01:40:12.615Z,7.00
2018-12-06T01:41:12.587Z,6.20
2018-12-06T01:42:12.611Z,7.20
2018-12-06T01:43:12.564Z,7.60
2018-12-06T01:44:12.564Z,7.20
2018-12-06T01:45:12.539Z,6.50
2018-12-06T01:46:12.531Z,6.80
2018-12-06T01:47:12.548Z,6.70
2018-12-06T01:48:12.529Z,8.10
2018-12-06T01:49:12.497Z,6.60
2018-12-06T01:50:12.497Z,7.10
2018-12-06T01:51:12.476Z,6.50
2018-12-06T01:52:12.463Z,5.80
2018-12-06T01:53:12.477Z,6.60
2018-12-06T01:54:12.444Z,5.00
2018-12-06T01:55:12.432Z,6.00
2018-12-06T01:56:12.418Z,6.20
2018-12-06T01:57:12.409Z,7.30
2018-12-06T01:58:12.478Z,5.90
2018-12-06T01:59:12.410Z,5.70
2018-12-06T02:00:12.374Z,6.50
2018-12-06T02:01:12.375Z,6.10
2018-12-06T02:02:12.357Z,6.40
2018-12-06T02:03:12.352Z,6.00
2018-12-06T02:04:12.347Z,6.80
2018-12-06T02:05:12.342Z,7.40
2018-12-06T02:06:12.330Z,8.90
2018-12-06T02:07:12.315Z,5.90
2018-12-06T02:08:12.301Z,6.70
2018-12-06T02:09:12.299Z,7.30
2018-12-06T02:10:12.267Z,6.80
2018-12-06T02:11:12.304Z,6.20
2018-12-06T02:12:12.243Z,7.50
2018-12-06T02:13:12.230Z,6.20
2018-12-06T02:14:12.261Z,6.10
2018-12-06T02:15:12.227Z,6.30
2018-12-06T02:16:12.197Z,6.20
2018-12-06T02:17:12.189Z,5.40
2018-12-06T02:18:12.191Z,6.90
2018-12-06T02:19:12.199Z,7.40
2018-12-06T02:20:12.181Z,5.00
2018-12-06T02:21:12.169Z,6.90
2018-12-06T02:22:12.142Z,6.30
2018-12-06T02:23:12.132Z,6.10
2018-12-06T02:24:12.112Z,5.40
2018-12-06T02:25:12.115Z,5.80
2018-12-06T02:26:12.107Z,5.40
2018-12-06T02:27:12.089Z,4.60
2018-12-06T02:28:12.092Z,6.20
2018-12-06T02:29:12.072Z,6.70
2018-12-06T02:30:12.069Z,6.50
2018-12-06T02:31:12.035Z,5.70
2018-12-06T02:32:12.034Z,5.20
2018-12-06T02:33:12.016Z,6.20
2018-12-06T02:34:12.001Z,5.70
2018-12-06T02:35:12.016Z,6.00
2018-12-06T02:36:11.983Z,4.90
2018-12-06T02:37:11.991Z,5.70
2018-12-06T02:38:11.968Z,6.20
2018-12-06T02:39:11.947Z,5.00
2018-12-06T02:40:11.945Z,5.70
2018-12-06T02:41:11.947Z,6.00
2018-12-06T02:42:11.913Z,5.20
2018-12-06T02:43:11.905Z,5.00
2018-12-06T02:44:11.901Z,4.80
2018-12-06T02:45:12.847Z,5.70
2018-12-06T02:46:11.899Z,6.30
2018-12-06T02:47:11.862Z,4.40
2018-12-06T02:48:11.847Z,5.20
2018-12-06T02:49:11.891Z,5.30
2018-12-06T02:50:11.828Z,6.00
2018-12-06T02:51:11.846Z,6.00
2018-12-06T02:52:11.824Z,4.80
2018-12-06T02:53:11.838Z,5.30
2018-12-06T02:54:11.784Z,5.60
2018-12-06T02:55:11.771Z,5.20
2018-12-06T02:56:11.792Z,5.70
2018-12-06T02:57:11.761Z,4.50
2018-12-06T02:58:12.653Z,5.30
2018-12-06T02:59:11.752Z,6.20
2018-12-06T03:00:11.722Z,4.50
2018-12-06T03:01:11.734Z,5.00
2018-12-06T03:02:11.706Z,5.90
2018-12-06T03:03:11.687Z,5.00
2018-12-06T03:04:11.689Z,5.40
2018-12-06T03:05:11.675Z,5.00
2018-12-06T03:06:11.663Z,4.30
2018-12-06T03:07:11.664Z,5.30
2018-12-06T03:08:11.665Z,5.40
2018-12-06T03:09:11.630Z,4.70
2018-12-06T03:10:11.616Z,5.30
2018-12-06T03:11:11.617Z,5.60
2018-12-06T03:12:11.634Z,4.80
2018-12-06T03:13:11.584Z,4.70
2018-12-06T03:14:11.568Z,4.80
2018-12-06T03:15:11.585Z,5.00
2018-12-06T03:16:11.541Z,4.50
2018-12-06T03:17:11.598Z,4.60
2018-12-06T03:18:11.526Z,4.60
2018-12-06T03:19:11.521Z,4.30
2018-12-06T03:20:11.513Z,4.60
2018-12-06T03:21:11.514Z,5.30
2018-12-06T03:22:11.508Z,4.60
2018-12-06T03:23:11.503Z,6.50
2018-12-06T03:24:11.482Z,5.00
2018-12-06T03:25:11.478Z,4.70
2018-12-06T03:26:11.441Z,4.00
2018-12-06T03:27:11.433Z,4.50
2018-12-06T03:28:11.441Z,4.50
2018-12-06T03:29:11.420Z,5.40
2018-12-06T03:30:11.393Z,4.70
2018-12-06T03:31:11.390Z,3.80
2018-12-06T03:32:11.372Z,5.80
2018-12-06T03:33:11.435Z,5.10
2018-12-06T03:34:11.349Z,5.80
2018-12-06T03:35:11.342Z,5.00
2018-12-06T03:36:11.338Z,4.30
2018-12-06T03:37:11.336Z,3.80
2018-12-06T03:38:11.344Z,4.60
2018-12-06T03:39:11.299Z,4.10
2018-12-06T03:40:11.284Z,4.50
2018-12-06T03:41:11.272Z,4.40
2018-12-06T03:42:11.260Z,4.20
2018-12-06T03:43:11.259Z,4.00
2018-12-06T03:44:11.312Z,4.10
2018-12-06T03:45:11.235Z,4.70
2018-12-06T03:46:11.216Z,4.70
2018-12-06T03:47:11.212Z,5.00
2018-12-06T03:48:11.201Z,3.80
2018-12-06T03:49:11.211Z,3.20
2018-12-06T03:50:11.188Z,4.90
2018-12-06T03:51:11.165Z,4.60
2018-12-06T03:52:11.149Z,3.80
2018-12-06T03:53:11.142Z,3.30
2018-12-06T03:54:11.158Z,3.70
2018-12-06T03:55:11.124Z,3.80
2018-12-06T03:56:11.107Z,5.60
2018-12-06T03:57:11.097Z,4.40
2018-12-06T03:58:11.102Z,4.40
2018-12-06T03:59:11.085Z,3.40
2018-12-06T04:00:11.093Z,4.70
2018-12-06T04:01:11.059Z,5.00
2018-12-06T04:02:11.040Z,4.30
2018-12-06T04:03:11.039Z,3.90
2018-12-06T04:04:11.025Z,4.00
2018-12-06T04:05:11.035Z,5.20
2018-12-06T04:06:11.014Z,4.90
2018-12-06T04:07:10.989Z,4.50
2018-12-06T04:08:10.982Z,4.00
2018-12-06T04:09:10.991Z,4.40
2018-12-06T04:10:10.994Z,3.80
2018-12-06T04:11:10.948Z,4.90
2018-12-06T04:12:10.944Z,4.30
2018-12-06T04:13:10.935Z,4.80
2018-12-06T04:14:10.914Z,4.90
2018-12-06T04:15:10.908Z,4.20
2018-12-06T04:16:10.911Z,4.00
2018-12-06T04:17:10.879Z,4.20
2018-12-06T04:18:10.875Z,4.00
2018-12-06T04:19:10.876Z,4.50
2018-12-06T04:20:10.855Z,4.80
2018-12-06T04:21:10.858Z,3.80
2018-12-06T04:22:10.823Z,4.90
2018-12-06T04:23:10.821Z,4.10
2018-12-06T04:24:10.799Z,4.80
2018-12-06T04:25:10.791Z,4.50
2018-12-06T04:26:10.817Z,4.20
2018-12-06T04:27:10.775Z,4.50
2018-12-06T04:28:10.764Z,4.90
2018-12-06T04:29:10.748Z,3.50
2018-12-06T04:30:10.741Z,4.60
2018-12-06T04:31:10.725Z,3.80
2018-12-06T04:32:10.738Z,4.00
2018-12-06T04:33:10.704Z,3.60
2018-12-06T04:34:10.702Z,4.20
2018-12-06T04:35:10.702Z,4.60
2018-12-06T04:36:10.671Z,3.90
2018-12-06T04:37:10.682Z,3.50
2018-12-06T04:38:10.647Z,3.70
2018-12-06T04:39:10.639Z,4.00
2018-12-06T04:40:10.651Z,4.10
2018-12-06T04:41:10.612Z,5.80
2018-12-06T04:42:10.633Z,5.40
2018-12-06T04:43:10.602Z,4.50
2018-12-06T04:44:10.604Z,3.90
2018-12-06T04:45:10.578Z,4.20
2018-12-06T04:46:10.565Z,4.40
2018-12-06T04:47:10.552Z,3.90
2018-12-06T04:48:10.561Z,4.00
2018-12-06T04:49:10.528Z,4.00
2018-12-06T04:50:10.520Z,4.60
2018-12-06T04:51:10.503Z,4.10
2018-12-06T04:52:10.504Z,3.90
2018-12-06T04:53:10.507Z,3.60
2018-12-06T04:54:10.483Z,3.40
2018-12-06T04:55:10.495Z,4.80
2018-12-06T04:56:10.467Z,3.50
2018-12-06T04:57:10.463Z,4.30
2018-12-06T04:58:10.448Z,3.40
2018-12-06T04:59:10.427Z,3.80
2018-12-06T05:00:10.410Z,3.30
2018-12-06T05:01:10.398Z,3.90
2018-12-06T05:02:10.391Z,4.00
2018-12-06T05:03:10.399Z,3.10
2018-12-06T05:04:10.370Z,4.10
2018-12-06T05:05:10.367Z,3.60
2018-12-06T05:06:10.346Z,3.80
2018-12-06T05:07:10.336Z,4.10
2018-12-06T05:08:10.344Z,4.70
2018-12-06T05:09:10.306Z,3.50
2018-12-06T05:10:10.308Z,3.70
2018-12-06T05:11:10.306Z,3.60
2018-12-06T05:12:10.277Z,4.40
2018-12-06T05:13:10.274Z,3.00
2018-12-06T05:14:10.279Z,3.40
2018-12-06T05:15:10.282Z,3.00
2018-12-06T05:16:10.243Z,3.40
2018-12-06T05:17:10.244Z,3.60
2018-12-06T05:18:10.215Z,3.20
2018-12-06T05:19:10.218Z,2.50
2018-12-06T05:20:10.206Z,3.50
2018-12-06T05:21:10.234Z,3.50
2018-12-06T05:22:10.172Z,3.10
2018-12-06T05:23:10.169Z,2.90
2018-12-06T05:24:10.611Z,3.70
2018-12-06T05:25:10.149Z,3.00
2018-12-06T05:26:10.135Z,3.50
2018-12-06T05:27:10.141Z,3.20
2018-12-06T05:28:10.100Z,3.90
2018-12-06T05:29:10.133Z,3.10
2018-12-06T05:30:10.126Z,3.20
2018-12-06T05:31:10.075Z,3.10
2018-12-06T05:32:10.071Z,3.70
2018-12-06T05:33:10.086Z,2.40
2018-12-06T05:34:10.080Z,3.10
2018-12-06T05:35:10.053Z,3.40
2018-12-06T05:36:10.028Z,3.50
2018-12-06T05:37:10.013Z,2.90
2018-12-06T05:38:09.993Z,3.60
2018-12-06T05:39:09.994Z,3.30
2018-12-06T05:40:09.996Z,3.60
2018-12-06T05:41:09.959Z,4.80
2018-12-06T05:42:10.004Z,3.80
2018-12-06T05:43:09.979Z,3.60
2018-12-06T05:44:09.934Z,4.00
2018-12-06T05:45:09.918Z,3.40
2018-12-06T05:46:09.924Z,4.30
2018-12-06T05:47:09.894Z,3.70
2018-12-06T05:48:09.888Z,3.60
2018-12-06T05:49:09.880Z,3.70
2018-12-06T05:50:09.871Z,2.80
2018-12-06T05:51:09.892Z,2.90
2018-12-06T05:52:09.850Z,3.70
2018-12-06T05:53:09.830Z,3.10
2018-12-06T05:54:09.825Z,3.70
2018-12-06T05:55:09.826Z,4.10
2018-12-06T05:56:09.827Z,4.50
2018-12-06T05:57:09.826Z,3.90
2018-12-06T05:58:09.809Z,3.70
2018-12-06T05:59:09.791Z,4.50
2018-12-06T06:00:09.818Z,4.40
2018-12-06T06:01:09.747Z,3.90
2018-12-06T06:02:09.756Z,3.90
2018-12-06T06:03:09.723Z,4.90
2018-12-06T06:04:09.718Z,4.10
2018-12-06T06:05:09.706Z,4.70
2018-12-06T06:06:09.686Z,3.60
2018-12-06T06:07:09.706Z,5.70
2018-12-06T06:08:09.670Z,4.30
2018-12-06T06:09:09.651Z,5.20
2018-12-06T06:10:09.655Z,4.40
2018-12-06T06:11:09.636Z,4.40
2018-12-06T06:12:09.656Z,3.50
2018-12-06T06:13:09.609Z,4.60
2018-12-06T06:14:09.602Z,5.10
2018-12-06T06:15:09.625Z,4.70
2018-12-06T06:16:09.587Z,6.60
2018-12-06T06:17:09.647Z,4.40
2018-12-06T06:18:09.601Z,4.00
2018-12-06T06:19:09.556Z,4.10
2018-12-06T06:20:09.540Z,5.40
2018-12-06T06:21:09.553Z,4.20
2018-12-06T06:22:09.517Z,5.20
2018-12-06T06:23:09.618Z,5.10
2018-12-06T06:24:09.495Z,4.40
2018-12-06T06:25:09.479Z,6.10
2018-12-06T06:26:09.524Z,6.00
2018-12-06T06:27:09.462Z,4.20
2018-12-06T06:28:09.463Z,5.10
2018-12-06T06:29:09.439Z,5.10
2018-12-06T06:30:09.430Z,4.00
2018-12-06T06:31:09.415Z,4.90
2018-12-06T06:32:09.405Z,4.20
2018-12-06T06:33:09.422Z,4.00
2018-12-06T06:34:09.381Z,3.30
2018-12-06T06:35:09.374Z,3.60
2018-12-06T06:36:09.374Z,4.00
2018-12-06T06:37:09.376Z,4.90
2018-12-06T06:38:09.371Z,5.10
2018-12-06T06:39:10.271Z,5.70
2018-12-06T06:40:09.326Z,4.90
2018-12-06T06:41:09.305Z,3.50
2018-12-06T06:42:09.294Z,4.60
2018-12-06T06:43:09.283Z,4.10
2018-12-06T06:44:09.305Z,6.20
2018-12-06T06:45:09.269Z,4.60
2018-12-06T06:46:09.252Z,4.30
2018-12-06T06:47:09.246Z,4.50
2018-12-06T06:48:09.305Z,6.60
2018-12-06T06:49:13.743Z,3.80
2018-12-06T06:50:09.210Z,4.80
2018-12-06T06:51:09.221Z,5.30
2018-12-06T06:52:09.186Z,5.50
2018-12-06T06:53:09.179Z,5.00
2018-12-06T06:54:09.168Z,4.50
2018-12-06T06:55:09.178Z,5.30
2018-12-06T06:56:09.167Z,4.50
2018-12-06T06:57:09.133Z,5.00
2018-12-06T06:58:09.121Z,5.00
2018-12-06T06:59:09.150Z,4.90
2018-12-06T07:00:09.127Z,5.50
2018-12-06T07:01:09.095Z,4.40
2018-12-06T07:02:09.084Z,4.60
2018-12-06T07:03:09.074Z,5.00
2018-12-06T07:04:09.061Z,4.30
2018-12-06T07:05:09.091Z,4.10
2018-12-06T07:06:09.042Z,5.80
2018-12-06T07:07:09.026Z,4.40
2018-12-06T07:08:09.017Z,4.70
2018-12-06T07:09:09.006Z,4.00
2018-12-06T07:10:09.001Z,5.40
2018-12-06T07:11:09.026Z,5.80
2018-12-06T07:12:08.986Z,5.30
2018-12-06T07:13:08.989Z,4.20
2018-12-06T07:14:08.948Z,5.10
2018-12-06T07:15:08.937Z,4.70
2018-12-06T07:16:08.946Z,5.40
2018-12-06T07:17:16.524Z,4.90
2018-12-06T07:18:08.906Z,5.10
2018-12-06T07:19:08.898Z,5.10
2018-12-06T07:20:08.889Z,4.70
2018-12-06T07:21:08.952Z,5.00
2018-12-06T07:22:16.485Z,4.30
2018-12-06T07:23:08.868Z,4.80
2018-12-06T07:24:08.848Z,5.30
2018-12-06T07:25:08.830Z,5.30
2018-12-06T07:26:08.881Z,4.40
2018-12-06T07:27:08.813Z,5.90
2018-12-06T07:28:08.803Z,5.50
2018-12-06T07:29:08.786Z,6.50
2018-12-06T07:30:12.335Z,5.40
2018-12-06T07:31:08.760Z,4.20
2018-12-06T07:32:08.775Z,5.30
2018-12-06T07:33:08.744Z,4.80
2018-12-06T07:34:08.736Z,5.50
2018-12-06T07:35:08.729Z,4.70
2018-12-06T07:36:08.769Z,4.80
2018-12-06T07:37:08.739Z,4.20
2018-12-06T07:38:08.702Z,4.80
2018-12-06T07:39:08.677Z,6.40
2018-12-06T07:40:08.665Z,5.00
2018-12-06T07:41:11.545Z,5.40
2018-12-06T07:43:17.953Z,5.50
2018-12-06T07:44:17.922Z,5.20
2018-12-06T07:46:34.184Z,3.30
2018-12-06T07:47:34.179Z,4.40
2018-12-06T07:48:34.121Z,4.50
2018-12-06T07:49:34.110Z,4.90
2018-12-06T07:50:34.120Z,4.30
2018-12-06T07:51:34.099Z,5.20
2018-12-06T07:52:34.082Z,5.20
2018-12-06T07:53:34.097Z,6.10
2018-12-06T07:54:34.087Z,5.00
2018-12-06T07:55:34.069Z,4.60
2018-12-06T07:56:34.047Z,7.80
2018-12-06T07:57:34.028Z,5.50
2018-12-06T07:58:34.046Z,5.60
2018-12-06T07:59:34.003Z,5.30
2018-12-06T08:00:33.993Z,4.70
2018-12-06T08:01:34.038Z,5.50
2018-12-06T08:02:33.981Z,4.60
2018-12-06T08:03:33.988Z,5.00
2018-12-06T08:04:33.952Z,5.10
2018-12-06T08:05:33.945Z,5.20
2018-12-06T08:06:33.941Z,4.90
2018-12-06T08:07:33.918Z,6.00
2018-12-06T08:08:33.937Z,6.00
2018-12-06T08:09:33.902Z,6.40
2018-12-06T08:10:33.887Z,5.70
2018-12-06T08:11:33.874Z,4.80
2018-12-06T08:12:33.864Z,4.90
2018-12-06T08:13:33.872Z,6.40
2018-12-06T08:14:33.877Z,5.90
2018-12-06T08:15:33.836Z,5.30
2018-12-06T08:16:33.826Z,5.20
2018-12-06T08:17:33.814Z,4.70
2018-12-06T08:18:33.805Z,5.30
2018-12-06T08:19:33.817Z,7.10
2018-12-06T08:20:33.784Z,4.90
2018-12-06T08:21:33.770Z,6.10
2018-12-06T08:22:33.758Z,6.30
2018-12-06T08:23:33.754Z,6.40
2018-12-06T08:24:33.832Z,7.30
2018-12-06T08:25:33.736Z,5.40
2018-12-06T08:26:33.713Z,5.40
2018-12-06T08:27:33.706Z,6.80
2018-12-06T08:28:33.709Z,6.40
2018-12-06T08:29:33.709Z,7.10
2018-12-06T08:30:33.735Z,6.30
2018-12-06T08:31:33.695Z,6.20
2018-12-06T08:32:33.669Z,6.60
2018-12-06T08:33:33.637Z,6.60
2018-12-06T08:34:33.632Z,6.00
2018-12-06T08:35:33.694Z,6.40
2018-12-06T08:36:33.656Z,7.40
2018-12-06T08:37:33.595Z,6.90
2018-12-06T08:38:33.589Z,7.30
2018-12-06T08:39:33.583Z,7.30
2018-12-06T08:40:33.599Z,5.50
2018-12-06T08:41:33.565Z,5.80
2018-12-06T08:42:33.541Z,6.40
2018-12-06T08:43:33.539Z,6.00
2018-12-06T08:44:33.523Z,5.90
2018-12-06T08:45:33.526Z,6.90
2018-12-06T08:46:33.515Z,6.10
2018-12-06T08:47:33.490Z,8.00
2018-12-06T08:48:33.527Z,7.00
2018-12-06T08:49:33.525Z,7.50
2018-12-06T08:50:33.503Z,8.20
2018-12-06T08:51:33.469Z,6.50
2018-12-06T08:52:33.458Z,7.10
2018-12-06T08:53:33.435Z,5.90
2018-12-06T08:54:33.418Z,6.80
2018-12-06T08:55:33.416Z,6.10
2018-12-06T08:56:33.445Z,6.70
2018-12-06T08:57:33.387Z,8.10
2018-12-06T08:58:33.403Z,6.80
2018-12-06T08:59:33.359Z,8.00
2018-12-06T09:00:33.377Z,7.80
2018-12-06T09:01:33.382Z,6.40
2018-12-06T09:02:33.336Z,6.20
2018-12-06T09:03:33.364Z,6.80
2018-12-06T09:04:33.305Z,7.20
2018-12-06T09:05:33.303Z,7.40
2018-12-06T09:06:33.294Z,8.70
2018-12-06T09:07:33.275Z,7.00
2018-12-06T09:08:33.271Z,6.70
2018-12-06T09:09:33.328Z,7.20
2018-12-06T09:10:33.251Z,6.50
2018-12-06T09:11:33.307Z,6.40
2018-12-06T09:12:33.237Z,7.20
2018-12-06T09:13:33.232Z,6.20
2018-12-06T09:14:33.237Z,6.80
2018-12-06T09:15:33.235Z,6.60
2018-12-06T09:16:33.210Z,7.10
2018-12-06T09:17:33.174Z,6.70
2018-12-06T09:18:33.167Z,8.10
2018-12-06T09:19:33.178Z,7.70
2018-12-06T09:20:33.133Z,7.00
2018-12-06T09:21:33.206Z,8.30
2018-12-06T09:22:33.116Z,6.80
2018-12-06T09:23:33.138Z,7.90
2018-12-06T09:24:33.115Z,6.20
2018-12-06T09:25:33.106Z,6.60
2018-12-06T09:26:33.112Z,6.90
2018-12-06T09:27:33.063Z,7.60
2018-12-06T09:28:33.046Z,5.60
2018-12-06T09:29:33.087Z,8.20
2018-12-06T09:30:33.052Z,7.50
2018-12-06T09:31:33.010Z,8.10
2018-12-06T09:32:33.040Z,7.20
2018-12-06T09:33:32.985Z,6.80
2018-12-06T09:34:32.978Z,8.70
2018-12-06T09:35:33.011Z,7.00
2018-12-06T09:36:32.991Z,6.80
2018-12-06T09:37:32.949Z,8.10
2018-12-06T09:38:32.946Z,8.90
2018-12-06T09:39:32.924Z,6.40
2018-12-06T09:40:32.914Z,7.10
2018-12-06T09:41:32.946Z,7.10
2018-12-06T09:42:34.609Z,6.50
2018-12-06T09:43:32.878Z,7.00
2018-12-06T09:44:32.877Z,7.90
2018-12-06T09:45:32.858Z,8.00
2018-12-06T09:46:32.887Z,7.70
2018-12-06T09:47:32.863Z,7.30
2018-12-06T09:48:32.861Z,6.70
2018-12-06T09:49:32.940Z,6.50
2018-12-06T09:50:32.806Z,6.70
2018-12-06T09:51:33.239Z,7.20
2018-12-06T09:52:32.780Z,7.30
2018-12-06T09:53:32.798Z,6.40
2018-12-06T09:54:32.761Z,6.60
2018-12-06T09:55:32.750Z,8.10
2018-12-06T09:56:32.768Z,7.00
2018-12-06T09:57:32.750Z,7.10
2018-12-06T09:58:32.747Z,6.40
2018-12-06T09:59:32.720Z,7.30
2018-12-06T10:00:32.717Z,8.20
2018-12-06T10:01:32.706Z,8.30
2018-12-06T10:02:32.697Z,9.00
2018-12-06T10:03:32.678Z,8.40
2018-12-06T10:04:32.646Z,9.20
2018-12-06T10:05:32.654Z,9.10
2018-12-06T10:06:32.642Z,9.20
2018-12-06T10:07:32.638Z,11.50
2018-12-06T10:08:32.611Z,10.60
2018-12-06T10:09:32.595Z,8.90
2018-12-06T10:10:32.583Z,8.50
2018-12-06T10:11:32.580Z,7.90
2018-12-06T10:12:32.581Z,8.70
2018-12-06T10:13:32.550Z,9.00
2018-12-06T10:14:32.574Z,10.30
2018-12-06T10:15:32.526Z,9.40
2018-12-06T10:16:32.532Z,7.80
2018-12-06T10:17:32.546Z,9.20
2018-12-06T10:18:32.507Z,7.90
2018-12-06T10:19:32.518Z,7.50
2018-12-06T10:20:32.492Z,6.70
2018-12-06T10:21:32.498Z,8.30
2018-12-06T10:22:32.455Z,8.90
2018-12-06T10:23:32.471Z,6.80
2018-12-06T10:24:32.442Z,8.10
2018-12-06T10:25:32.431Z,8.10
2018-12-06T10:26:32.422Z,8.80
2018-12-06T10:27:32.407Z,9.10
2018-12-06T10:28:32.420Z,10.60
2018-12-06T10:29:32.424Z,7.70
2018-12-06T10:30:32.379Z,9.20
2018-12-06T10:31:32.371Z,8.70
2018-12-06T10:32:32.362Z,7.80
2018-12-06T10:33:32.328Z,7.80
2018-12-06T10:34:32.326Z,7.50
2018-12-06T10:35:32.354Z,7.80
2018-12-06T10:36:32.295Z,7.70
2018-12-06T10:37:32.291Z,8.90
2018-12-06T10:38:32.295Z,8.10
2018-12-06T10:39:32.261Z,7.20
2018-12-06T10:40:32.292Z,10.10
2018-12-06T10:41:32.249Z,9.60
2018-12-06T10:42:32.235Z,8.40
2018-12-06T10:43:32.219Z,9.70
2018-12-06T10:44:32.211Z,10.30
2018-12-06T10:45:32.207Z,8.70
2018-12-06T10:46:32.210Z,10.00
2018-12-06T10:47:32.176Z,8.30
2018-12-06T10:48:39.780Z,9.10
2018-12-06T10:49:32.198Z,9.40
2018-12-06T10:50:32.143Z,8.70
2018-12-06T10:51:39.750Z,9.00
2018-12-06T10:52:32.132Z,8.10
2018-12-06T10:53:32.108Z,7.80
2018-12-06T10:54:32.103Z,9.40
2018-12-06T10:55:32.145Z,8.30
2018-12-06T10:56:32.113Z,8.40
2018-12-06T10:57:32.069Z,8.20
2018-12-06T10:58:32.084Z,7.90
2018-12-06T10:59:32.062Z,8.70
2018-12-06T11:00:32.034Z,8.50
2018-12-06T11:01:32.022Z,8.40
2018-12-06T11:02:32.028Z,8.50
2018-12-06T11:03:31.998Z,7.90
2018-12-06T11:04:32.026Z,8.30
2018-12-06T11:05:31.979Z,9.20
2018-12-06T11:06:39.782Z,10.70
2018-12-06T11:07:31.967Z,8.50
2018-12-06T11:08:31.950Z,8.50
2018-12-06T11:09:31.940Z,7.60
2018-12-06T11:10:31.974Z,8.80
2018-12-06T11:11:31.914Z,9.10
2018-12-06T11:12:31.902Z,11.00
2018-12-06T11:13:31.887Z,9.00
2018-12-06T11:14:31.898Z,9.20
2018-12-06T11:15:31.874Z,8.30
2018-12-06T11:16:31.879Z,8.50
2018-12-06T11:17:31.859Z,9.20
2018-12-06T11:18:31.837Z,8.50
2018-12-06T11:19:31.830Z,8.60
2018-12-06T11:20:31.831Z,8.60
2018-12-06T11:21:39.792Z,9.10
2018-12-06T11:22:31.794Z,11.70
2018-12-06T11:23:31.776Z,8.50
2018-12-06T11:24:31.767Z,7.90
2018-12-06T11:25:31.761Z,8.50
2018-12-06T11:26:31.779Z,8.80
2018-12-06T11:27:31.738Z,9.70
2018-12-06T11:28:31.766Z,8.30
2018-12-06T11:29:31.721Z,11.60
2018-12-06T11:30:31.702Z,10.30
2018-12-06T11:31:31.694Z,8.70
2018-12-06T11:32:31.770Z,8.50
2018-12-06T11:33:31.680Z,8.60
2018-12-06T11:34:31.682Z,9.50
2018-12-06T11:35:38.765Z,9.30
2018-12-06T11:36:31.643Z,9.00
2018-12-06T11:37:31.674Z,8.20
2018-12-06T11:38:31.615Z,9.50
2018-12-06T11:39:31.607Z,9.60
2018-12-06T11:40:31.595Z,9.60
2018-12-06T11:41:31.588Z,8.20
2018-12-06T11:42:31.595Z,9.50
2018-12-06T11:43:31.560Z,8.20
2018-12-06T11:44:31.548Z,8.20
2018-12-06T11:45:31.540Z,8.90
2018-12-06T11:46:31.540Z,7.50
2018-12-06T11:47:31.560Z,7.60
2018-12-06T11:48:31.503Z,7.30
2018-12-06T11:49:31.504Z,9.50
2018-12-06T11:50:31.507Z,8.50
2018-12-06T11:51:31.479Z,15.60
2018-12-06T11:52:31.497Z,9.00
2018-12-06T11:53:31.457Z,10.40
2018-12-06T11:54:31.438Z,8.80
2018-12-06T11:55:31.443Z,9.10
2018-12-06T11:56:31.423Z,9.00
2018-12-06T11:57:31.409Z,8.30
2018-12-06T11:58:31.420Z,7.80
2018-12-06T11:59:31.381Z,8.20
2018-12-06T12:00:31.416Z,8.60
2018-12-06T12:01:31.386Z,8.90
2018-12-06T12:02:31.351Z,9.20
2018-12-06T12:03:31.339Z,8.80
2018-12-06T12:04:31.346Z,9.60
2018-12-06T12:05:31.316Z,8.40
2018-12-06T12:06:31.365Z,8.60
2018-12-06T12:07:31.301Z,8.50
2018-12-06T12:08:31.357Z,9.00
2018-12-06T12:09:31.276Z,8.50
2018-12-06T12:10:31.277Z,8.40
2018-12-06T12:11:31.287Z,8.60
2018-12-06T12:12:31.291Z,8.20
2018-12-06T12:13:31.256Z,8.70
2018-12-06T12:14:31.238Z,9.40
2018-12-06T12:15:31.205Z,8.00
2018-12-06T12:16:31.219Z,9.40
2018-12-06T12:17:31.215Z,9.20
2018-12-06T12:18:31.183Z,9.00
2018-12-06T12:19:31.188Z,9.00
2018-12-06T12:20:31.180Z,8.60
2018-12-06T12:21:31.180Z,8.70
2018-12-06T12:22:31.142Z,8.40
2018-12-06T12:23:31.158Z,9.30
2018-12-06T12:24:31.124Z,8.40
2018-12-06T12:25:31.102Z,10.50
2018-12-06T12:26:31.125Z,8.50
2018-12-06T12:27:31.087Z,8.10
2018-12-06T12:28:31.069Z,7.80
2018-12-06T12:29:31.091Z,9.80
2018-12-06T12:30:31.042Z,9.00
2018-12-06T12:31:31.034Z,8.00
2018-12-06T12:32:31.052Z,7.80
2018-12-06T12:33:31.019Z,9.50
2018-12-06T12:34:31.005Z,7.90
2018-12-06T12:35:30.999Z,7.80
2018-12-06T12:36:30.983Z,7.90
2018-12-06T12:37:31.005Z,8.20
2018-12-06T12:38:30.958Z,7.80
2018-12-06T12:39:30.950Z,10.10
2018-12-06T12:40:30.941Z,7.10
2018-12-06T12:41:30.924Z,7.60
2018-12-06T12:42:30.954Z,7.40
2018-12-06T12:43:30.910Z,7.70
2018-12-06T12:44:30.929Z,8.20
2018-12-06T12:45:30.881Z,7.00
2018-12-06T12:46:30.902Z,8.40
2018-12-06T12:47:30.857Z,8.30
2018-12-06T12:48:30.870Z,7.30
2018-12-06T12:49:30.838Z,7.70
2018-12-06T12:50:30.831Z,7.00
2018-12-06T12:51:30.841Z,8.10
2018-12-06T12:52:30.844Z,7.50
2018-12-06T12:53:30.813Z,6.90
2018-12-06T12:54:30.797Z,6.70
2018-12-06T12:55:30.772Z,7.00
2018-12-06T12:56:30.774Z,9.40
2018-12-06T12:57:30.750Z,7.60
2018-12-06T12:58:30.775Z,6.70
2018-12-06T12:59:30.747Z,6.80
2018-12-06T13:00:30.731Z,7.90
2018-12-06T13:01:30.708Z,6.90
2018-12-06T13:02:30.701Z,7.30
2018-12-06T13:03:30.708Z,6.90
2018-12-06T13:04:31.284Z,6.80
2018-12-06T13:05:31.075Z,6.90
2018-12-06T13:06:30.669Z,6.90
2018-12-06T13:07:30.652Z,6.90
2018-12-06T13:08:30.642Z,6.60
2018-12-06T13:09:30.641Z,6.80
2018-12-06T13:10:30.647Z,7.50
2018-12-06T13:11:30.643Z,7.20
2018-12-06T13:12:30.604Z,6.80
2018-12-06T13:13:30.573Z,8.60
2018-12-06T13:14:30.597Z,7.30
2018-12-06T13:15:30.563Z,7.80
2018-12-06T13:16:30.542Z,6.90
2018-12-06T13:17:30.562Z,7.00
2018-12-06T13:18:30.528Z,6.90
2018-12-06T13:19:30.544Z,7.20